Time;durP1;ratioP1;P1;durP2;ratioP2;P2;SDS_P1;SDS_P2;PMS_P1;PMS_P2;Temp;Humidity;BMP_temperature;BMP_pressure;BME280_temperature;BME280_humidity;BME280_pressure;Samples;Min_cycle;Max_cycle;Signal;HPM_P1;HPM_P2
2022/01/27 00:05:14;;;;;;;29.77;15.30;;;;;;;1.02;93.31;101273.92;1741583;82;21067;-71
2022/01/27 00:07:36;;;;;;;28.97;14.87;;;;;;;1.02;93.36;101268.75;1739570;82;21220;-72
2022/01/27 00:10:27;;;;;;;35.10;15.65;;;;;;;1.04;93.30;101272.66;1741446;82;21474;-71
2022/01/27 00:12:47;;;;;;;30.23;16.73;;;;;;;1.05;93.32;101271.81;1739491;82;21044;-71
2022/01/27 00:15:16;;;;;;;28.83;15.63;;;;;;;1.05;93.33;101263.67;1741304;82;21615;-71
2022/01/27 00:17:48;;;;;;;31.63;15.40;;;;;;;1.06;93.33;101252.48;1741341;82;21012;-71
2022/01/27 00:20:15;;;;;;;33.13;14.70;;;;;;;1.08;93.27;101253.78;1740813;82;21149;-76
2022/01/27 00:22:43;;;;;;;30.07;15.63;;;;;;;1.08;93.31;101235.31;1741271;82;20966;-72
2022/01/27 00:25:11;;;;;;;29.73;14.40;;;;;;;1.09;93.28;101240.91;1741245;82;21063;-70
2022/01/27 00:27:38;;;;;;;30.40;15.70;;;;;;;1.10;93.31;101246.94;1741173;82;21103;-71
2022/01/27 00:30:09;;;;;;;33.67;16.03;;;;;;;1.09;93.27;101251.23;1741248;82;21016;-71
2022/01/27 00:32:36;;;;;;;33.10;16.50;;;;;;;1.10;93.26;101249.52;1741479;82;21544;-71
2022/01/27 00:35:06;;;;;;;30.90;15.87;;;;;;;1.08;93.25;101261.13;1741324;82;21036;-71
2022/01/27 00:37:33;;;;;;;31.23;15.77;;;;;;;1.09;93.35;101250.37;1741758;82;21510;-70
2022/01/27 00:40:00;;;;;;;29.87;15.90;;;;;;;1.10;93.35;101254.25;1741198;82;21733;-70
2022/01/27 00:42:29;;;;;;;30.37;14.97;;;;;;;1.12;93.38;101237.52;1741127;82;21057;-70
2022/01/27 00:44:56;;;;;;;27.47;14.93;;;;;;;1.14;93.33;101238.80;1741231;82;21147;-71
2022/01/27 00:47:24;;;;;;;30.37;15.47;;;;;;;1.15;93.29;101241.85;1741402;82;21024;-71
2022/01/27 00:49:51;;;;;;;29.70;15.53;;;;;;;1.14;93.30;101240.98;1741233;82;21024;-75
2022/01/27 00:52:28;;;;;;;27.80;14.20;;;;;;;1.15;93.30;101223.35;1741192;82;21029;-71
2022/01/27 00:54:49;;;;;;;27.43;13.93;;;;;;;1.16;93.30;101225.50;1739768;82;21068;-76
2022/01/27 00:57:48;;;;;;;31.03;15.47;;;;;;;1.16;93.27;101218.62;1741674;82;21977;-74
2022/01/27 01:02:37;;;;;;;32.83;15.80;;;;;;;1.19;93.31;101217.80;1741361;82;21100;-70
2022/01/27 01:05:03;;;;;;;31.57;15.27;;;;;;;1.18;93.29;101215.64;1738216;82;21040;-71
2022/01/27 01:07:19;;;;;;;32.17;16.10;;;;;;;1.20;93.27;101205.35;1738958;82;21437;-70
2022/01/27 01:15:32;;;;;;;32.13;15.27;;;;;;;1.22;93.28;101246.24;1706239;84;21003;-70
2022/01/27 01:18:08;;;;;;;31.53;15.17;;;;;;;1.23;93.29;101226.05;1705333;84;21067;-71
2022/01/27 01:31:45;;;;;;;32.60;15.57;;;;;;;1.25;93.22;101202.42;1706535;84;21023;-70
2022/01/27 01:34:14;;;;;;;34.33;15.60;;;;;;;1.25;93.21;101203.28;1704170;84;21027;-70
2022/01/27 01:36:37;;;;;;;33.87;16.90;;;;;;;1.26;93.19;101198.97;1704396;84;21821;-71
2022/01/27 01:39:05;;;;;;;33.57;16.90;;;;;;;1.26;93.24;101209.30;1706751;84;21671;-71
2022/01/27 01:41:33;;;;;;;31.33;15.63;;;;;;;1.27;93.23;101212.32;1705503;83;21054;-71
2022/01/27 01:44:00;;;;;;;30.90;14.73;;;;;;;1.27;93.18;101209.30;1704520;84;21046;-71
2022/01/27 01:46:27;;;;;;;31.73;15.47;;;;;;;1.29;93.20;101218.38;1723984;82;21007;-71
2022/01/27 01:48:54;;;;;;;25.60;14.10;;;;;;;1.30;93.15;101212.36;1742199;82;21802;-70
2022/01/27 01:51:25;;;;;;;29.10;14.40;;;;;;;1.29;93.08;101213.22;1741749;82;20992;-70
2022/01/27 01:53:53;;;;;;;31.03;15.73;;;;;;;1.29;93.09;101217.09;1741917;82;21030;-70
2022/01/27 01:56:20;;;;;;;31.40;15.20;;;;;;;1.28;93.08;101215.37;1741808;82;21474;-70
2022/01/27 01:58:47;;;;;;;29.20;13.77;;;;;;;1.29;93.10;101214.08;1742037;82;21016;-70
2022/01/27 02:01:15;;;;;;;29.83;14.43;;;;;;;1.30;93.08;101216.23;1741810;82;21157;-72
2022/01/27 02:03:42;;;;;;;27.83;13.30;;;;;;;1.30;93.10;101207.20;1741906;82;21508;-71
2022/01/27 02:06:17;;;;;;;25.13;12.87;;;;;;;1.29;93.10;101212.79;1741514;82;21047;-70
2022/01/27 02:08:46;;;;;;;30.37;14.43;;;;;;;1.29;93.02;101201.59;1715205;82;21473;-71
2022/01/27 02:19:31;;;;;;;35.13;15.27;;;;;;;1.26;93.23;101194.67;1741775;82;21036;-77
2022/01/27 02:22:02;;;;;;;33.88;15.85;;;;;;;1.27;93.26;101187.78;1741610;82;21019;-70
2022/01/27 02:24:33;;;;;;;33.90;16.33;;;;;;;1.27;93.26;101189.94;1741809;82;21058;-76
2022/01/27 02:27:03;;;;;;;33.00;15.63;;;;;;;1.27;93.28;101186.06;1741461;82;21517;-71
2022/01/27 02:29:30;;;;;;;31.83;15.00;;;;;;;1.29;93.31;101184.38;1741787;82;21074;-71
2022/01/27 02:32:00;;;;;;;31.60;15.60;;;;;;;1.30;93.31;101182.66;1741453;82;21000;-75
2022/01/27 02:34:27;;;;;;;32.65;14.60;;;;;;;1.31;93.32;101175.38;1741941;82;20893;-70
2022/01/27 02:36:55;;;;;;;36.73;15.77;;;;;;;1.32;93.32;101183.55;1741427;82;21026;-71
2022/01/27 02:39:23;;;;;;;30.37;14.77;;;;;;;1.31;93.29;101172.36;1741815;82;21128;-71
2022/01/27 02:42:12;;;;;;;29.37;13.63;;;;;;;1.34;93.35;101185.74;1736359;82;21475;-73
2022/01/27 02:44:47;;;;;;;30.20;14.77;;;;;;;1.35;93.39;101169.39;1731664;82;22021;-75
2022/01/27 02:47:16;;;;;;;29.23;13.90;;;;;;;1.36;93.34;101169.84;1730892;82;21419;-71
2022/01/27 02:49:43;;;;;;;28.27;13.93;;;;;;;1.38;93.35;101163.39;1731238;82;20985;-71
2022/01/27 02:52:11;;;;;;;32.57;15.10;;;;;;;1.38;93.35;101168.56;1731198;82;21098;-72
2022/01/27 02:54:38;;;;;;;29.37;13.47;;;;;;;1.39;93.39;101165.15;1731128;82;21049;-71
2022/01/27 02:57:06;;;;;;;32.13;14.27;;;;;;;1.41;93.46;101154.39;1731175;82;21009;-71
2022/01/27 02:59:33;;;;;;;28.63;13.50;;;;;;;1.42;93.45;101154.42;1731296;82;20962;-71
2022/01/27 03:02:00;;;;;;;28.17;13.27;;;;;;;1.43;93.37;101139.36;1731201;82;21095;-71
2022/01/27 03:04:30;;;;;;;27.43;13.00;;;;;;;1.44;93.35;101133.75;1731286;82;21159;-71
2022/01/27 03:06:58;;;;;;;25.17;12.53;;;;;;;1.45;93.34;101128.63;1731405;82;21014;-71
2022/01/27 03:09:25;;;;;;;30.70;13.37;;;;;;;1.45;93.33;101126.04;1731453;82;21017;-71
2022/01/27 03:11:59;;;;;;;26.10;12.50;;;;;;;1.45;93.34;101138.95;1731231;82;21017;-72
2022/01/27 03:14:27;;;;;;;25.87;13.43;;;;;;;1.45;93.32;101113.12;1731397;82;21294;-71
2022/01/27 03:16:57;;;;;;;27.90;12.60;;;;;;;1.46;93.27;101126.91;1731222;82;21300;-72
2022/01/27 03:19:26;;;;;;;24.30;11.93;;;;;;;1.47;93.31;101117.00;1731532;82;21495;-71
2022/01/27 03:21:55;;;;;;;22.27;11.67;;;;;;;1.47;93.33;101098.52;1731223;82;20973;-70
2022/01/27 03:24:24;;;;;;;23.00;11.93;;;;;;;1.48;93.33;101095.07;1731403;82;21254;-70
2022/01/27 03:26:53;;;;;;;24.00;12.23;;;;;;;1.50;93.34;101096.39;1731233;82;20966;-71
2022/01/27 03:29:20;;;;;;;22.93;11.50;;;;;;;1.51;93.34;101087.78;1731472;82;21128;-70
2022/01/27 03:31:47;;;;;;;28.87;13.13;;;;;;;1.53;93.35;101082.22;1731215;82;20970;-70
2022/01/27 03:34:16;;;;;;;21.80;11.10;;;;;;;1.53;93.28;101077.05;1731401;82;20965;-71
2022/01/27 03:36:43;;;;;;;25.23;12.43;;;;;;;1.53;93.31;101074.03;1731221;82;21014;-70
2022/01/27 03:39:14;;;;;;;23.37;11.83;;;;;;;1.54;93.25;101073.17;1731511;82;21574;-71
2022/01/27 03:41:46;;;;;;;22.37;12.10;;;;;;;1.55;93.21;101075.33;1731116;82;21210;-73
2022/01/27 03:44:08;;;;;;;22.70;10.93;;;;;;;1.55;93.25;101065.88;1730292;82;21428;-70
2022/01/27 03:46:36;;;;;;;21.50;11.27;;;;;;;1.58;93.29;101059.88;1731233;82;21594;-70
2022/01/27 03:49:03;;;;;;;23.13;11.17;;;;;;;1.60;93.21;101064.61;1731185;82;21049;-70
2022/01/27 03:51:30;;;;;;;20.53;11.17;;;;;;;1.60;93.17;101071.08;1731296;82;21214;-70
2022/01/27 03:53:57;;;;;;;23.20;10.90;;;;;;;1.60;93.19;101071.08;1731132;82;21211;-70
2022/01/27 03:56:25;;;;;;;20.70;10.70;;;;;;;1.63;93.17;101067.66;1731064;82;21009;-69
2022/01/27 03:58:52;;;;;;;25.97;11.93;;;;;;;1.63;93.18;101074.98;1731216;82;21009;-70
2022/01/27 04:01:19;;;;;;;21.90;10.47;;;;;;;1.64;93.16;101067.69;1731317;82;20985;-70
2022/01/27 04:03:46;;;;;;;20.60;10.60;;;;;;;1.66;93.08;101062.52;1731231;82;21056;-70
2022/01/27 04:06:20;;;;;;;20.50;9.97;;;;;;;1.68;93.10;101062.12;1731253;82;21154;-75
2022/01/27 04:08:42;;;;;;;21.67;11.47;;;;;;;1.68;93.08;101061.69;1730334;82;21010;-70
2022/01/27 04:11:10;;;;;;;19.40;10.30;;;;;;;1.70;93.03;101061.72;1731517;82;21022;-70
2022/01/27 04:13:37;;;;;;;19.80;10.10;;;;;;;1.69;93.01;101052.21;1731270;82;20982;-70
2022/01/27 04:16:05;;;;;;;21.10;10.97;;;;;;;1.71;93.00;101062.14;1731411;82;21014;-70
2022/01/27 04:18:33;;;;;;;22.37;10.70;;;;;;;1.73;93.02;101052.70;1731267;82;21812;-71
2022/01/27 04:21:00;;;;;;;21.00;10.53;;;;;;;1.73;92.95;101044.51;1731341;82;21048;-70
2022/01/27 04:23:27;;;;;;;20.73;10.80;;;;;;;1.74;93.01;101040.20;1731116;82;21490;-71
2022/01/27 04:25:54;;;;;;;20.63;10.03;;;;;;;1.74;92.90;101038.48;1731622;82;21001;-72
2022/01/27 04:28:29;;;;;;;23.23;10.67;;;;;;;1.74;92.84;101045.38;1731439;82;21421;-70
2022/01/27 04:30:56;;;;;;;19.40;9.43;;;;;;;1.74;92.83;101036.33;1731226;82;22027;-70
2022/01/27 04:33:29;;;;;;;19.60;10.70;;;;;;;1.75;92.83;101038.94;1731414;82;21009;-70
2022/01/27 04:35:58;;;;;;;22.87;10.13;;;;;;;1.76;92.83;101030.32;1731414;82;21029;-70
2022/01/27 04:38:29;;;;;;;21.37;9.90;;;;;;;1.75;92.81;101023.44;1731233;82;20998;-70
2022/01/27 04:41:11;;;;;;;20.80;9.80;;;;;;;1.77;92.83;101032.08;1730909;82;21455;-70
2022/01/27 04:43:39;;;;;;;22.33;10.70;;;;;;;1.77;92.79;101030.78;1729935;82;21149;-73
2022/01/27 04:46:20;;;;;;;20.40;9.90;;;;;;;1.81;92.84;101029.52;1729906;82;21041;-70
2022/01/27 04:48:42;;;;;;;22.60;10.37;;;;;;;1.81;92.85;101020.03;1729323;82;21017;-70
2022/01/27 04:51:10;;;;;;;21.13;10.40;;;;;;;1.81;92.71;101014.87;1730757;82;21013;-71
2022/01/27 04:53:43;;;;;;;19.17;9.40;;;;;;;1.79;92.74;101008.38;1731461;82;21001;-71
2022/01/27 04:56:13;;;;;;;17.00;9.33;;;;;;;1.78;92.71;101009.67;1730657;82;21311;-70
2022/01/27 04:58:38;;;;;;;25.50;11.07;;;;;;;1.76;92.62;101015.25;1731161;82;21030;-72
2022/01/27 05:01:06;;;;;;;18.53;9.83;;;;;;;1.74;92.61;101008.76;1731340;82;22160;-70
2022/01/27 05:03:42;;;;;;;22.90;11.07;;;;;;;1.73;92.63;101010.05;1731381;82;21017;-71
2022/01/27 05:06:04;;;;;;;22.37;9.97;;;;;;;1.71;92.62;101001.41;1730621;82;21458;-71
2022/01/27 05:08:32;;;;;;;25.00;11.40;;;;;;;1.71;92.64;100996.25;1731180;82;21205;-72
2022/01/27 05:11:10;;;;;;;21.07;9.77;;;;;;;1.69;92.66;100991.48;1731516;82;21021;-71
2022/01/27 05:13:35;;;;;;;20.70;11.03;;;;;;;1.68;92.63;100984.59;1729609;82;21437;-71
2022/01/27 05:15:57;;;;;;;22.50;10.83;;;;;;;1.65;92.59;100993.18;1730893;82;21499;-70
2022/01/27 05:18:24;;;;;;;20.97;10.20;;;;;;;1.63;92.66;100987.55;1731338;82;21270;-70
2022/01/27 05:20:51;;;;;;;20.83;11.07;;;;;;;1.62;92.63;100987.13;1731514;82;21230;-76
2022/01/27 05:23:18;;;;;;;23.10;10.67;;;;;;;1.60;92.67;100986.24;1731315;82;20913;-72
2022/01/27 05:25:48;;;;;;;22.93;11.30;;;;;;;1.56;92.70;100982.77;1731153;82;20998;-71
2022/01/27 05:28:15;;;;;;;21.80;10.37;;;;;;;1.54;92.69;100967.24;1731275;82;20994;-71
2022/01/27 05:30:44;;;;;;;23.07;10.67;;;;;;;1.51;92.64;100963.34;1731562;82;21024;-75
2022/01/27 05:33:11;;;;;;;21.77;10.83;;;;;;;1.50;92.70;100965.93;1731162;82;21870;-71
2022/01/27 05:35:38;;;;;;;24.40;10.77;;;;;;;1.47;92.71;100952.56;1731537;82;21009;-71
2022/01/27 05:38:05;;;;;;;23.90;11.07;;;;;;;1.46;92.81;100961.57;1731309;82;21018;-71
2022/01/27 05:40:32;;;;;;;23.90;11.07;;;;;;;1.44;92.77;100952.94;1731623;82;21006;-71
2022/01/27 05:42:59;;;;;;;20.10;10.00;;;;;;;1.43;92.71;100954.66;1735570;82;21060;-71
2022/01/27 05:45:26;;;;;;;25.20;11.77;;;;;;;1.41;92.82;100953.77;1738685;82;21117;-71
2022/01/27 05:47:53;;;;;;;23.23;11.50;;;;;;;1.41;92.87;100951.62;1738631;82;21460;-71
2022/01/27 05:50:21;;;;;;;23.07;11.57;;;;;;;1.39;92.83;100951.63;1738684;82;21470;-76
2022/01/27 05:52:48;;;;;;;22.60;10.77;;;;;;;1.38;92.83;100957.62;1738604;82;21009;-72
2022/01/27 05:55:15;;;;;;;24.53;11.43;;;;;;;1.36;92.80;100956.77;1738772;82;21164;-72
2022/01/27 05:57:42;;;;;;;21.50;10.17;;;;;;;1.34;92.84;100957.16;1738567;82;21314;-71
2022/01/27 06:00:10;;;;;;;21.33;10.00;;;;;;;1.34;92.97;100961.90;1738633;82;20982;-72
2022/01/27 06:02:41;;;;;;;22.07;10.37;;;;;;;1.34;92.98;100961.03;1738607;82;21001;-72
2022/01/27 06:05:09;;;;;;;23.90;10.80;;;;;;;1.33;93.01;100948.95;1738585;82;21391;-71
2022/01/27 06:07:37;;;;;;;23.30;11.33;;;;;;;1.33;92.92;100961.87;1738609;82;21506;-73
2022/01/27 06:10:05;;;;;;;18.93;9.67;;;;;;;1.33;93.00;100957.99;1738903;82;21780;-71
2022/01/27 06:12:33;;;;;;;19.37;10.03;;;;;;;1.32;93.01;100953.27;1738518;82;21052;-72
2022/01/27 06:15:00;;;;;;;22.57;10.33;;;;;;;1.33;93.10;100953.72;1738904;82;21002;-71
2022/01/27 06:17:29;;;;;;;22.20;10.43;;;;;;;1.34;93.09;100950.70;1738505;82;21012;-71
2022/01/27 06:19:57;;;;;;;21.43;10.17;;;;;;;1.34;93.12;100945.54;1738950;82;21013;-71
2022/01/27 06:22:24;;;;;;;17.97;9.20;;;;;;;1.34;93.13;100947.69;1738563;82;21370;-71
2022/01/27 06:24:51;;;;;;;22.73;10.00;;;;;;;1.36;93.13;100952.00;1738602;82;20986;-72
2022/01/27 06:27:18;;;;;;;23.20;10.80;;;;;;;1.35;93.14;100939.52;1738804;82;21470;-76
2022/01/27 06:29:47;;;;;;;19.07;9.10;;;;;;;1.36;93.08;100936.50;1738503;82;20989;-76
2022/01/27 06:32:14;;;;;;;23.27;10.50;;;;;;;1.36;93.07;100942.95;1738867;82;21001;-73
2022/01/27 06:34:41;;;;;;;19.83;9.77;;;;;;;1.34;93.09;100930.91;1737900;82;22000;-73
2022/01/27 06:37:08;;;;;;;23.10;10.83;;;;;;;1.32;92.99;100917.10;1737818;82;20993;-73
2022/01/27 06:39:35;;;;;;;18.67;8.97;;;;;;;1.30;93.00;100915.36;1737713;82;21342;-72
2022/01/27 06:42:05;;;;;;;19.70;9.77;;;;;;;1.29;93.09;100915.79;1737612;82;21341;-74
2022/01/27 06:44:31;;;;;;;23.30;11.43;;;;;;;1.29;93.09;100907.18;1730830;82;20993;-72
2022/01/27 06:46:58;;;;;;;23.07;10.33;;;;;;;1.26;93.02;100900.27;1730850;82;21483;-72
2022/01/27 06:49:25;;;;;;;20.60;10.40;;;;;;;1.24;92.97;100899.81;1730916;82;20986;-75
2022/01/27 06:51:52;;;;;;;20.97;10.17;;;;;;;1.21;93.03;100899.79;1731273;82;21025;-76
2022/01/27 06:54:22;;;;;;;18.97;9.40;;;;;;;1.21;93.09;100917.86;1731654;82;21017;-72
2022/01/27 06:56:50;;;;;;;19.95;9.08;;;;;;;1.20;93.19;100912.27;1731369;82;26802;-72
2022/01/27 06:59:16;;;;;;;15.90;8.63;;;;;;;1.20;93.15;100917.44;1731552;82;21175;-72
2022/01/27 07:01:43;;;;;;;20.27;9.23;;;;;;;1.19;93.19;100915.69;1731526;82;21557;-75
2022/01/27 07:04:10;;;;;;;16.70;7.80;;;;;;;1.19;93.21;100908.83;1725417;81;20955;-71
2022/01/27 07:06:39;;;;;;;19.43;9.10;;;;;;;1.19;93.26;100911.81;1722153;83;21027;-76
2022/01/27 07:09:06;;;;;;;18.63;8.57;;;;;;;1.21;93.31;100912.70;1720902;83;21094;-71
2022/01/27 07:11:33;;;;;;;18.03;8.87;;;;;;;1.22;93.27;100886.02;1733573;81;21251;-71
2022/01/27 07:14:00;;;;;;;17.30;8.83;;;;;;;1.25;93.25;100884.34;1703263;82;21047;-72
2022/01/27 07:16:27;;;;;;;17.53;8.63;;;;;;;1.27;93.25;100883.91;1719052;82;21100;-75
2022/01/27 07:18:55;;;;;;;19.80;9.30;;;;;;;1.30;93.26;100880.49;1722288;82;21469;-73
2022/01/27 07:21:22;;;;;;;18.20;8.67;;;;;;;1.32;93.21;100873.63;1720890;82;21039;-72
2022/01/27 07:23:49;;;;;;;17.63;8.93;;;;;;;1.34;93.18;100880.55;1725011;81;21135;-71
2022/01/27 07:26:16;;;;;;;15.80;8.07;;;;;;;1.38;93.13;100874.97;1721838;82;21528;-72
2022/01/27 07:28:43;;;;;;;16.60;8.43;;;;;;;1.40;93.10;100885.33;1720884;82;20967;-75
2022/01/27 07:31:10;;;;;;;18.73;8.53;;;;;;;1.41;93.03;100877.57;1718592;82;21035;-75
2022/01/27 07:33:36;;;;;;;17.77;9.17;;;;;;;1.44;92.98;100890.94;1721141;83;21529;-72
2022/01/27 07:36:04;;;;;;;17.57;8.73;;;;;;;1.45;92.87;100896.13;1697457;83;21974;-71
2022/01/27 07:38:31;;;;;;;15.67;8.63;;;;;;;1.47;92.85;100875.06;1706223;83;21008;-75
2022/01/27 07:40:58;;;;;;;17.10;8.40;;;;;;;1.49;92.83;100872.04;1707957;83;21042;-71
2022/01/27 07:43:25;;;;;;;14.93;8.20;;;;;;;1.51;92.76;100879.38;1722112;82;21084;-72
2022/01/27 07:45:52;;;;;;;18.63;9.27;;;;;;;1.53;92.71;100884.14;1735563;81;21023;-75
2022/01/27 07:48:19;;;;;;;16.20;8.57;;;;;;;1.56;92.62;100885.45;1732415;81;21464;-72
2022/01/27 07:50:46;;;;;;;17.67;8.80;;;;;;;1.59;92.55;100861.80;1735005;81;20966;-72
2022/01/27 07:53:12;;;;;;;16.80;8.53;;;;;;;1.61;92.47;100860.06;1713117;82;21050;-71
2022/01/27 07:55:40;;;;;;;18.43;8.40;;;;;;;1.64;92.43;100853.22;1744482;81;21055;-71
2022/01/27 07:58:07;;;;;;;17.77;8.43;;;;;;;1.65;92.32;100842.45;1744277;81;21031;-72
2022/01/27 08:00:36;;;;;;;19.57;9.37;;;;;;;1.64;92.18;100840.30;1737954;81;21079;-73
2022/01/27 08:03:03;;;;;;;21.03;9.23;;;;;;;1.63;92.09;100837.26;1734394;82;21042;-72
2022/01/27 08:05:31;;;;;;;21.87;10.10;;;;;;;1.65;92.17;100847.62;1733009;82;20947;-71
2022/01/27 08:07:59;;;;;;;17.67;9.10;;;;;;;1.66;92.15;100842.88;1751541;81;21031;-74
2022/01/27 08:10:27;;;;;;;16.97;8.47;;;;;;;1.65;91.99;100841.16;1746015;81;21091;-72
2022/01/27 08:12:54;;;;;;;17.23;8.70;;;;;;;1.66;91.99;100821.77;1710555;83;21284;-78
2022/01/27 08:15:22;;;;;;;20.30;9.03;;;;;;;1.67;91.95;100809.74;1711086;83;21351;-72
2022/01/27 08:17:49;;;;;;;22.27;9.77;;;;;;;1.67;91.89;100799.41;1719395;83;21012;-72
2022/01/27 08:20:16;;;;;;;17.90;8.93;;;;;;;1.67;91.86;100792.94;1719706;83;21023;-71
2022/01/27 08:22:44;;;;;;;17.57;9.07;;;;;;;1.65;91.75;100799.81;1719488;83;20991;-73
2022/01/27 08:25:11;;;;;;;20.37;9.47;;;;;;;1.64;91.67;100791.20;1719686;83;21788;-70
2022/01/27 08:27:41;;;;;;;17.70;9.00;;;;;;;1.66;91.59;100779.56;1719232;83;21027;-70
2022/01/27 08:30:09;;;;;;;20.30;9.63;;;;;;;1.66;91.57;100789.47;1719784;83;21004;-71
2022/01/27 08:32:56;;;;;;;18.73;9.50;;;;;;;1.67;91.52;100769.25;1719388;83;21031;-70
2022/01/27 08:35:20;;;;;;;23.13;10.93;;;;;;;1.67;91.45;100780.03;1718739;83;20992;-70
2022/01/27 08:37:48;;;;;;;20.10;9.67;;;;;;;1.68;91.46;100779.16;1719404;83;21144;-72
2022/01/27 08:40:17;;;;;;;21.43;10.37;;;;;;;1.70;91.40;100774.88;1719529;83;21056;-76
2022/01/27 08:42:45;;;;;;;21.00;9.90;;;;;;;1.72;91.37;100769.29;1719337;82;21493;-72
2022/01/27 08:45:15;;;;;;;19.60;10.10;;;;;;;1.73;91.37;100756.36;1719358;83;21033;-71
2022/01/27 08:47:44;;;;;;;19.87;10.20;;;;;;;1.73;91.29;100743.88;1719526;83;21024;-71
2022/01/27 08:50:13;;;;;;;19.20;10.67;;;;;;;1.76;91.21;100729.67;1719355;83;21561;-71
2022/01/27 08:52:43;;;;;;;23.20;10.07;;;;;;;1.78;91.21;100727.96;1719322;83;21012;-71
2022/01/27 08:55:11;;;;;;;22.60;10.83;;;;;;;1.80;91.16;100722.34;1719427;83;21075;-71
2022/01/27 08:57:38;;;;;;;21.90;10.90;;;;;;;1.84;91.12;100709.03;1719463;83;21024;-71
2022/01/27 09:00:09;;;;;;;20.57;10.07;;;;;;;1.84;91.04;100717.64;1719399;83;20996;-71
2022/01/27 09:02:36;;;;;;;22.00;10.13;;;;;;;1.85;90.92;100721.08;1719524;83;21075;-71
2022/01/27 09:05:04;;;;;;;22.20;10.40;;;;;;;1.87;90.91;100723.25;1719361;83;20985;-72
2022/01/27 09:07:31;;;;;;;21.50;10.97;;;;;;;1.89;90.91;100726.71;1719248;83;21000;-71
2022/01/27 09:09:58;;;;;;;22.60;11.03;;;;;;;1.93;90.96;100736.19;1719659;83;21039;-71
2022/01/27 09:12:25;;;;;;;21.87;10.40;;;;;;;1.95;90.87;100746.98;1719422;83;21032;-71
2022/01/27 09:14:52;;;;;;;21.63;10.40;;;;;;;1.96;90.79;100749.98;1719534;83;21138;-71
2022/01/27 09:17:19;;;;;;;20.73;10.40;;;;;;;1.96;90.77;100752.56;1719286;83;21020;-72
2022/01/27 09:19:46;;;;;;;21.23;9.97;;;;;;;1.98;90.78;100746.13;1719559;83;21016;-71
2022/01/27 09:22:16;;;;;;;29.27;12.20;;;;;;;1.99;90.74;100743.97;1719320;83;21274;-71
2022/01/27 09:24:59;;;;;;;18.50;9.37;;;;;;;2.01;90.70;100744.84;1719701;83;21031;-71
2022/01/27 09:27:26;;;;;;;20.17;10.17;;;;;;;2.02;90.74;100738.80;1719466;83;22147;-70
2022/01/27 09:29:54;;;;;;;17.93;9.40;;;;;;;2.03;90.74;100736.67;1719376;83;21024;-69
2022/01/27 09:32:21;;;;;;;19.57;9.63;;;;;;;2.04;90.68;100739.67;1719200;83;21039;-74
2022/01/27 09:34:48;;;;;;;19.77;10.23;;;;;;;2.06;90.67;100727.63;1719307;83;21023;-69
2022/01/27 09:37:15;;;;;;;19.13;10.20;;;;;;;2.06;90.65;100728.92;1719320;83;21519;-69
2022/01/27 09:39:42;;;;;;;19.63;10.10;;;;;;;2.06;90.58;100719.02;1719619;83;21123;-70
2022/01/27 09:42:09;;;;;;;18.60;10.27;;;;;;;2.08;90.60;100721.14;1719359;83;21001;-69
2022/01/27 09:44:40;;;;;;;19.10;9.27;;;;;;;2.08;90.60;100712.98;1729502;82;21023;-70
2022/01/27 09:47:11;;;;;;;20.23;10.40;;;;;;;2.08;90.66;100714.69;1733190;82;21026;-71
2022/01/27 09:49:43;;;;;;;17.73;9.73;;;;;;;2.08;90.62;100714.69;1733581;82;21035;-73
2022/01/27 09:52:07;;;;;;;18.93;10.10;;;;;;;2.04;90.49;100707.80;1732934;82;21284;-73
2022/01/27 09:54:36;;;;;;;18.07;10.37;;;;;;;1.97;90.53;100705.63;1733632;82;21031;-74
2022/01/27 09:57:04;;;;;;;17.87;10.33;;;;;;;1.90;90.52;100702.14;1733308;82;21282;-71
2022/01/27 09:59:32;;;;;;;18.93;9.50;;;;;;;1.77;90.17;100689.62;1733672;82;21007;-78
2022/01/27 10:02:04;;;;;;;17.47;10.13;;;;;;;1.64;90.11;100701.20;1733328;82;21026;-72
2022/01/27 10:04:59;;;;;;;18.33;10.13;;;;;;;1.53;90.34;100694.70;1733677;82;21871;-72
2022/01/27 10:07:33;;;;;;;18.80;10.33;;;;;;;1.46;90.53;100680.87;1733320;82;21027;-71
2022/01/27 10:10:15;;;;;;;17.73;10.00;;;;;;;1.45;90.90;100674.42;1732751;82;21007;-71
2022/01/27 10:12:48;;;;;;;17.80;9.53;;;;;;;1.42;91.00;100667.95;1733298;82;21026;-70
2022/01/27 10:15:22;;;;;;;18.50;9.40;;;;;;;1.42;91.34;100664.08;1733305;82;21007;-71
2022/01/27 10:18:11;;;;;;;16.87;9.67;;;;;;;1.43;91.48;100658.91;1733592;82;21090;-73
2022/01/27 10:21:00;;;;;;;19.63;9.87;;;;;;;1.41;91.44;100648.98;1733238;82;21020;-72
2022/01/27 10:23:33;;;;;;;17.17;8.77;;;;;;;1.41;91.52;100653.29;1733442;82;21305;-82
2022/01/27 10:26:12;;;;;;;16.93;9.37;;;;;;;1.42;91.72;100646.86;1733334;82;21023;-73
2022/01/27 10:28:45;;;;;;;15.20;9.40;;;;;;;1.46;91.76;100634.80;1732183;82;20999;-83
2022/01/27 10:31:19;;;;;;;15.30;9.37;;;;;;;1.49;91.88;100634.81;1732821;82;21160;-72
2022/01/27 10:33:53;;;;;;;18.20;8.93;;;;;;;1.53;92.12;100627.53;1733376;82;21512;-73
2022/01/27 10:36:43;;;;;;;16.50;8.57;;;;;;;1.55;91.97;100619.33;1733276;82;21501;-72
2022/01/27 10:39:19;;;;;;;16.90;9.95;;;;;;;1.54;91.94;100615.89;1733739;82;21102;-77
2022/01/27 10:42:06;;;;;;;16.40;8.63;;;;;;;1.52;91.94;100615.05;1733330;82;21039;-71
2022/01/27 10:44:47;;;;;;;16.63;10.27;;;;;;;1.53;92.14;100613.31;1723651;82;21162;-73
2022/01/27 10:47:22;;;;;;;16.37;9.10;;;;;;;1.50;91.98;100602.55;1716661;83;20993;-75
2022/01/27 10:49:57;;;;;;;18.53;10.47;;;;;;;1.49;91.93;100607.69;1716774;83;21067;-72
2022/01/27 10:52:37;;;;;;;16.33;9.20;;;;;;;1.46;92.09;100605.95;1716122;83;21067;-77
2022/01/27 10:55:14;;;;;;;13.70;8.83;;;;;;;1.45;92.01;100590.04;1716147;83;20985;-73
2022/01/27 10:57:49;;;;;;;;;;;;;;;1.45;92.14;100608.12;1718260;83;21297;-72
2022/01/27 11:00:19;;;;;;;15.93;9.97;;;;;;;1.44;92.14;100587.44;1695432;83;20165;-75
2022/01/27 11:02:57;;;;;;;15.43;9.43;;;;;;;1.40;92.21;100576.67;1716757;83;32705;-82
2022/01/27 11:05:31;;;;;;;18.03;10.17;;;;;;;1.36;92.22;100586.55;1716643;83;21044;-73
2022/01/27 11:08:00;;;;;;;16.23;9.97;;;;;;;1.34;92.46;100566.75;1716818;83;21036;-79
2022/01/27 11:10:28;;;;;;;15.40;9.90;;;;;;;1.34;92.60;100578.38;1716957;83;21228;-74
2022/01/27 11:12:58;;;;;;;17.53;10.70;;;;;;;1.33;92.58;100565.44;1716657;83;21036;-73
2022/01/27 11:15:26;;;;;;;15.13;9.88;;;;;;;1.33;92.68;100557.70;1717057;83;21001;-75
2022/01/27 11:17:54;;;;;;;18.80;10.97;;;;;;;1.34;92.89;100557.72;1716598;83;21052;-75
2022/01/27 11:27:52;;;;;;;17.53;10.47;;;;;;;1.38;93.15;100551.27;1729729;82;21541;-76
2022/01/27 11:30:58;;;;;;;15.83;9.70;;;;;;;1.39;93.41;100545.27;1704144;84;21026;-73
2022/01/27 11:33:34;;;;;;;17.33;10.13;;;;;;;1.41;93.42;100546.11;1703762;84;21537;-72
2022/01/27 11:36:19;;;;;;;18.30;10.57;;;;;;;1.42;93.48;100547.41;1730036;83;21529;-75
2022/01/27 11:38:50;;;;;;;17.33;11.03;;;;;;;1.44;93.55;100547.00;1703813;84;21080;-72
2022/01/27 11:41:48;;;;;;;19.63;11.87;;;;;;;1.46;93.57;100536.22;1728965;82;21537;-75
2022/01/27 11:44:36;;;;;;;17.43;9.40;;;;;;;1.48;93.70;100536.23;1695346;83;21028;-71
2022/01/27 11:47:17;;;;;;;16.53;9.97;;;;;;;1.50;93.63;100539.70;1701049;84;21564;-72
2022/01/27 11:50:06;;;;;;;17.77;10.60;;;;;;;1.53;93.89;100537.11;1701409;84;21109;-72
2022/01/27 11:52:52;;;;;;;19.43;11.17;;;;;;;1.56;93.91;100521.61;1701453;84;21034;-74
2022/01/27 11:55:30;;;;;;;19.13;11.33;;;;;;;1.58;93.84;100523.78;1702099;84;21015;-73
2022/01/27 11:58:00;;;;;;;15.77;9.40;;;;;;;1.55;93.60;100534.08;1702010;84;21039;-75
2022/01/27 12:00:30;;;;;;;18.60;11.05;;;;;;;1.54;93.83;100515.58;1702378;84;21565;-73
2022/01/27 12:03:07;;;;;;;18.27;10.32;;;;;;;1.55;93.85;100507.84;1702102;84;21205;-72
2022/01/27 12:05:41;;;;;;;73.20;34.63;;;;;;;1.60;93.92;100512.14;1702159;84;21027;-76
2022/01/27 12:08:21;;;;;;;19.40;11.10;;;;;;;1.62;93.95;100503.97;1670764;85;21585;-73
2022/01/27 12:10:58;;;;;;;31.60;17.33;;;;;;;1.65;94.11;100502.24;1671068;85;21067;-72